Time;durP1;ratioP1;P1;durP2;ratioP2;P2;SDS_P1;SDS_P2;PMS_P1;PMS_P2;Temp;Humidity;BMP_temperature;BMP_pressure;BME280_temperature;BME280_humidity;BME280_pressure;Samples;Min_cycle;Max_cycle;Signal;HPM_P1;HPM_P2
2021/09/22 00:03:12;;;;;;;29.40;4.78;;;;;;;12.22;92.15;102686.06;10150175;28;20077;-70
2021/09/22 00:08:08;;;;;;;35.95;4.40;;;;;;;12.19;92.60;102689.38;10151497;28;20039;-70
2021/09/22 00:13:05;;;;;;;27.13;5.18;;;;;;;12.23;92.34;102685.00;10143809;28;20035;-70
2021/09/22 00:18:02;;;;;;;30.75;4.28;;;;;;;12.25;92.13;102687.44;10148827;28;20477;-70
2021/09/22 00:22:58;;;;;;;37.33;4.93;;;;;;;12.25;91.90;102677.28;10157972;28;20389;-70
2021/09/22 00:27:55;;;;;;;29.50;5.03;;;;;;;12.18;91.96;102676.75;10155591;28;20046;-69
2021/09/22 00:32:52;;;;;;;27.10;5.22;;;;;;;12.06;92.81;102673.53;10155477;28;20110;-68
2021/09/22 00:37:49;;;;;;;26.60;4.47;;;;;;;12.15;92.80;102680.06;10157225;28;20053;-69
2021/09/22 00:42:45;;;;;;;31.85;4.57;;;;;;;12.11;92.66;102670.75;10156569;28;20046;-70
2021/09/22 00:47:42;;;;;;;27.58;4.78;;;;;;;12.15;92.16;102677.31;10158378;28;20077;-71
2021/09/22 00:52:40;;;;;;;34.35;5.25;;;;;;;12.00;92.57;102679.03;10153601;28;20046;-71
2021/09/22 00:57:49;;;;;;;29.27;4.28;;;;;;;12.00;93.00;102686.44;10158553;28;20070;-71
2021/09/22 01:02:48;;;;;;;18.13;3.33;;;;;;;11.99;93.19;102679.31;10137237;28;20121;-70
2021/09/22 01:07:46;;;;;;;25.02;4.28;;;;;;;12.00;93.44;102681.78;10157009;28;20039;-71
2021/09/22 01:12:43;;;;;;;28.58;4.07;;;;;;;12.00;92.87;102675.47;10156284;28;20046;-70
2021/09/22 01:17:40;;;;;;;29.70;3.95;;;;;;;11.99;93.23;102684.78;10156518;28;20053;-70
2021/09/22 01:22:36;;;;;;;24.60;3.25;;;;;;;11.96;93.12;102668.91;10154329;28;20050;-70
2021/09/22 01:27:33;;;;;;;22.27;3.65;;;;;;;11.92;92.84;102685.06;10139343;28;20501;-70
2021/09/22 01:32:29;;;;;;;25.40;3.83;;;;;;;11.84;92.45;102682.91;10147980;28;20043;-71
2021/09/22 01:37:26;;;;;;;23.88;3.88;;;;;;;11.85;92.72;102690.00;10151851;28;20480;-70
2021/09/22 01:42:22;;;;;;;27.88;4.68;;;;;;;11.86;92.99;102680.69;10152887;28;20076;-70
2021/09/22 01:47:19;;;;;;;24.27;3.75;;;;;;;11.85;92.92;102673.56;10153097;28;20508;-70
2021/09/22 01:52:16;;;;;;;28.75;4.13;;;;;;;11.85;92.75;102662.59;10149822;28;20448;-70
2021/09/22 01:57:12;;;;;;;37.30;4.70;;;;;;;11.86;92.94;102686.19;10154434;28;20057;-70
2021/09/22 02:02:09;;;;;;;26.38;3.97;;;;;;;11.71;93.29;102678.00;10141505;28;20081;-70
2021/09/22 02:07:06;;;;;;;27.42;5.53;;;;;;;11.73;93.68;102676.59;10154605;28;20046;-70
2021/09/22 02:12:03;;;;;;;30.20;4.60;;;;;;;11.71;93.80;102661.53;10156291;28;20085;-70
2021/09/22 02:17:00;;;;;;;27.83;4.47;;;;;;;11.70;93.05;102660.72;10154952;28;20493;-70
2021/09/22 02:21:56;;;;;;;23.58;3.88;;;;;;;11.70;92.88;102659.91;10149758;28;20061;-70
2021/09/22 02:26:53;;;;;;;24.25;4.15;;;;;;;11.66;93.35;102658.81;10154924;28;20042;-70
2021/09/22 02:31:49;;;;;;;19.08;3.53;;;;;;;11.63;92.97;102662.09;10149414;28;20038;-70
2021/09/22 02:36:46;;;;;;;16.15;3.35;;;;;;;11.58;92.95;102669.25;10151797;28;20485;-70
2021/09/22 02:41:42;;;;;;;16.48;2.85;;;;;;;11.55;92.50;102663.50;10155977;28;20038;-70
2021/09/22 02:46:38;;;;;;;19.48;3.67;;;;;;;11.52;92.54;102656.66;10154475;28;20069;-70
2021/09/22 02:51:35;;;;;;;23.85;5.32;;;;;;;11.52;92.57;102661.31;10138891;28;20081;-70
2021/09/22 02:56:32;;;;;;;15.27;3.20;;;;;;;11.51;93.07;102657.75;10152378;28;20047;-70
2021/09/22 03:01:30;;;;;;;17.83;3.80;;;;;;;11.53;93.23;102650.09;10155047;28;20137;-70
2021/09/22 03:06:27;;;;;;;19.25;3.45;;;;;;;11.54;93.04;102646.25;10145690;28;20043;-70
2021/09/22 03:11:24;;;;;;;20.50;3.80;;;;;;;11.53;92.94;102647.34;10156303;28;20125;-70
2021/09/22 03:16:21;;;;;;;20.17;4.28;;;;;;;11.50;92.55;102656.09;10152274;28;20134;-70
2021/09/22 03:21:18;;;;;;;27.33;4.18;;;;;;;11.47;92.81;102651.19;10151637;28;20042;-71
2021/09/22 03:26:15;;;;;;;23.05;3.92;;;;;;;11.43;92.13;102644.63;10152902;28;20129;-70
2021/09/22 03:31:11;;;;;;;20.30;3.38;;;;;;;11.39;92.33;102643.53;10150172;28;20531;-70
2021/09/22 03:36:08;;;;;;;19.20;3.72;;;;;;;11.36;92.21;102644.09;10151506;28;20049;-70
2021/09/22 03:41:04;;;;;;;21.25;4.53;;;;;;;11.32;92.76;102637.50;10151067;28;20046;-70
2021/09/22 03:46:01;;;;;;;19.52;4.20;;;;;;;11.31;92.88;102638.63;10152154;28;20050;-70
2021/09/22 03:50:58;;;;;;;18.88;4.03;;;;;;;11.32;92.40;102645.72;10151801;28;20560;-70
2021/09/22 03:55:54;;;;;;;27.65;4.30;;;;;;;11.31;92.92;102649.56;10165927;28;20138;-70
2021/09/22 04:00:51;;;;;;;15.60;3.35;;;;;;;11.34;92.91;102669.00;10159994;28;20042;-70
2021/09/22 04:05:47;;;;;;;25.20;4.68;;;;;;;11.41;92.73;102674.19;10154291;28;20046;-70
2021/09/22 04:10:44;;;;;;;20.58;3.90;;;;;;;11.47;93.44;102664.88;10150663;28;20093;-70
2021/09/22 04:15:40;;;;;;;19.65;4.53;;;;;;;11.52;93.98;102659.41;10156435;28;20070;-70
2021/09/22 04:20:37;;;;;;;25.10;4.53;;;;;;;11.56;94.17;102655.00;10160043;28;20062;-70
2021/09/22 04:25:33;;;;;;;20.65;3.92;;;;;;;11.59;94.27;102654.44;10156359;28;20085;-70
2021/09/22 04:30:30;;;;;;;21.83;3.60;;;;;;;11.64;94.32;102647.31;10164386;28;20062;-70
2021/09/22 04:35:27;;;;;;;18.75;3.63;;;;;;;11.63;94.28;102642.91;10152091;28;20424;-70
2021/09/22 04:40:28;;;;;;;17.77;3.65;;;;;;;11.64;94.10;102647.31;10158092;28;20047;-70
2021/09/22 04:45:25;;;;;;;18.88;3.40;;;;;;;11.63;94.20;102648.41;10159377;28;20093;-70
2021/09/22 04:50:23;;;;;;;21.90;4.15;;;;;;;11.63;94.34;102648.41;10156659;28;20059;-70
2021/09/22 04:55:20;;;;;;;20.20;4.32;;;;;;;11.62;94.43;102644.03;10153855;28;20046;-70
2021/09/22 05:00:16;;;;;;;28.05;4.95;;;;;;;11.65;95.24;102640.72;10153103;28;20046;-70
2021/09/22 05:05:13;;;;;;;24.92;4.75;;;;;;;11.70;95.27;102640.72;10152086;28;20464;-70
2021/09/22 05:10:10;;;;;;;24.55;5.22;;;;;;;11.72;95.74;102657.69;10150851;28;20408;-71
2021/09/22 05:15:07;;;;;;;20.27;3.95;;;;;;;11.73;95.60;102668.38;10153292;28;20078;-70
2021/09/22 05:20:04;;;;;;;22.38;4.10;;;;;;;11.73;94.97;102664.84;10151821;28;20077;-70
2021/09/22 05:25:02;;;;;;;24.50;3.70;;;;;;;11.80;95.56;102668.91;10152887;28;20050;-70
2021/09/22 05:29:59;;;;;;;21.17;4.32;;;;;;;11.84;96.21;102666.44;10150217;28;20460;-70
2021/09/22 05:34:55;;;;;;;19.20;3.78;;;;;;;11.86;95.51;102669.72;10147626;28;20072;-71
2021/09/22 05:39:52;;;;;;;19.02;3.63;;;;;;;11.88;95.20;102670.31;10151597;28;20120;-70
2021/09/22 05:44:48;;;;;;;27.52;4.43;;;;;;;11.90;95.71;102670.81;10151393;28;20038;-70
2021/09/22 05:49:45;;;;;;;23.67;4.57;;;;;;;11.92;95.42;102676.84;10157140;28;20074;-70
2021/09/22 05:54:41;;;;;;;24.83;4.55;;;;;;;12.02;95.44;102677.91;10146077;28;20042;-70
2021/09/22 05:59:40;;;;;;;31.65;5.68;;;;;;;12.08;94.95;102687.78;10151050;28;20073;-70
2021/09/22 06:04:36;;;;;;;20.92;5.10;;;;;;;12.14;94.64;102681.19;10148584;28;20042;-71
2021/09/22 06:09:32;;;;;;;22.75;4.13;;;;;;;12.20;94.95;102691.00;10152087;28;20141;-70
2021/09/22 06:14:29;;;;;;;20.40;4.18;;;;;;;12.22;94.48;102683.31;10155761;28;20038;-70
2021/09/22 06:19:25;;;;;;;19.20;3.88;;;;;;;12.26;94.71;102684.41;10151285;28;20097;-70
2021/09/22 06:24:22;;;;;;;19.42;4.63;;;;;;;12.30;94.23;102698.38;10149848;28;20208;-70
2021/09/22 06:29:18;;;;;;;20.40;4.60;;;;;;;12.33;94.44;102682.19;10154828;28;20074;-70
2021/09/22 06:34:19;;;;;;;25.65;5.38;;;;;;;12.37;93.68;102686.00;10140126;28;20038;-70
2021/09/22 06:39:15;;;;;;;24.20;5.40;;;;;;;12.35;93.91;102688.22;10155088;28;20101;-71
2021/09/22 06:44:13;;;;;;;21.17;5.05;;;;;;;12.39;94.19;102685.72;10143320;28;20489;-70
2021/09/22 06:49:10;;;;;;;21.08;5.18;;;;;;;12.42;94.05;102694.22;10154807;28;20101;-70
2021/09/22 06:54:06;;;;;;;22.10;5.65;;;;;;;12.43;94.10;102684.88;10151451;28;20093;-70
2021/09/22 06:59:03;;;;;;;27.83;7.00;;;;;;;12.41;94.54;102689.81;10154344;28;20070;-70
2021/09/22 07:03:59;;;;;;;24.98;6.63;;;;;;;12.47;95.02;102692.53;10148189;28;20061;-70
2021/09/22 07:08:56;;;;;;;27.63;8.02;;;;;;;12.53;94.88;102688.66;10154115;28;20042;-70
2021/09/22 07:13:52;;;;;;;34.30;8.07;;;;;;;12.56;95.56;102677.13;10152795;28;20074;-70
2021/09/22 07:18:49;;;;;;;23.92;7.82;;;;;;;12.70;95.66;102682.81;10152778;28;20038;-70
2021/09/22 07:23:45;;;;;;;27.00;8.68;;;;;;;12.73;95.51;102677.56;10150788;28;20612;-70
2021/09/22 07:28:42;;;;;;;28.92;8.35;;;;;;;12.81;95.52;102679.72;10153580;28;20046;-70
2021/09/22 07:33:39;;;;;;;34.25;11.93;;;;;;;12.92;95.30;102690.63;10151373;28;20562;-70
2021/09/22 07:38:35;;;;;;;25.90;9.02;;;;;;;12.98;95.13;102689.47;10159661;28;20073;-70
2021/09/22 07:43:32;;;;;;;23.27;8.85;;;;;;;13.02;95.04;102680.38;10159053;28;20047;-71
2021/09/22 07:48:29;;;;;;;26.15;10.20;;;;;;;13.10;95.39;102692.66;10147399;28;20435;-69
2021/09/22 07:53:26;;;;;;;26.42;10.77;;;;;;;13.16;95.03;102691.53;10154693;28;20043;-71
2021/09/22 07:58:22;;;;;;;31.48;9.75;;;;;;;13.26;95.21;102680.44;10160821;28;20098;-71
2021/09/22 08:03:19;;;;;;;28.48;9.50;;;;;;;13.37;94.98;102680.41;10159064;28;20069;-71
2021/09/22 08:08:16;;;;;;;25.27;8.35;;;;;;;13.48;94.91;102687.41;10154894;28;20046;-71
2021/09/22 08:13:13;;;;;;;22.75;8.13;;;;;;;13.55;94.70;102676.91;10159416;28;20482;-69
2021/09/22 08:18:09;;;;;;;23.15;8.73;;;;;;;13.62;93.48;102680.16;10156775;28;20531;-71
2021/09/22 08:23:06;;;;;;;24.02;8.27;;;;;;;13.68;93.53;102670.72;10147428;28;20129;-71
2021/09/22 08:28:03;;;;;;;19.40;6.18;;;;;;;13.79;92.93;102678.88;10151551;28;20050;-71
2021/09/22 08:32:59;;;;;;;20.92;6.35;;;;;;;13.93;92.32;102674.31;10158931;28;20093;-71
2021/09/22 08:37:56;;;;;;;17.30;6.38;;;;;;;14.10;91.78;102671.88;10161488;28;20042;-71
2021/09/22 08:42:52;;;;;;;21.63;6.97;;;;;;;14.20;90.82;102670.97;10154378;28;20060;-71
2021/09/22 08:47:49;;;;;;;18.73;6.82;;;;;;;14.23;89.99;102664.06;10154138;28;20412;-71
2021/09/22 08:52:48;;;;;;;22.15;7.35;;;;;;;14.38;89.43;102663.81;10159144;28;20138;-71
2021/09/22 08:57:44;;;;;;;20.05;7.90;;;;;;;14.35;89.15;102667.19;10154900;28;20101;-70
2021/09/22 09:02:43;;;;;;;23.75;8.63;;;;;;;14.37;89.27;102670.47;10156459;28;20420;-70
2021/09/22 09:08:00;;;;;;;19.98;6.80;;;;;;;14.36;88.57;102673.50;10149795;28;20042;-70
2021/09/22 09:13:03;;;;;;;16.45;7.00;;;;;;;14.39;89.02;102676.50;10158167;28;20042;-70
2021/09/22 09:18:01;;;;;;;17.13;6.63;;;;;;;14.47;89.83;102659.28;10155531;28;20519;-70
2021/09/22 09:23:00;;;;;;;20.35;7.20;;;;;;;14.45;89.25;102661.53;10158222;28;20042;-71
2021/09/22 09:27:57;;;;;;;21.50;6.90;;;;;;;14.51;89.15;102649.34;10153671;28;20049;-70
2021/09/22 09:32:53;;;;;;;20.30;7.57;;;;;;;14.65;89.55;102656.88;10148702;28;20062;-70
2021/09/22 09:37:52;;;;;;;17.42;5.55;;;;;;;14.68;88.54;102645.25;10155175;28;20053;-70
2021/09/22 09:42:56;;;;;;;18.15;5.45;;;;;;;14.85;88.89;102652.97;10152341;28;20101;-70
2021/09/22 09:48:14;;;;;;;15.25;5.00;;;;;;;14.91;85.55;102657.31;10156945;28;20605;-70
2021/09/22 09:53:29;;;;;;;14.80;6.97;;;;;;;15.08;85.79;102663.06;10142378;28;20057;-70
2021/09/22 09:58:43;;;;;;;14.57;5.05;;;;;;;15.19;85.33;102660.97;10147266;28;20066;-70
2021/09/22 10:03:40;;;;;;;14.10;6.28;;;;;;;15.27;85.21;102665.78;10150354;28;20042;-70
2021/09/22 10:08:37;;;;;;;16.27;5.95;;;;;;;15.32;84.81;102662.94;10148699;28;20469;-70
2021/09/22 10:13:34;;;;;;;17.85;6.15;;;;;;;15.33;84.89;102652.72;10154575;28;20042;-70
2021/09/22 10:18:31;;;;;;;19.02;5.65;;;;;;;15.52;83.43;102652.66;10148924;28;20069;-70
2021/09/22 10:23:28;;;;;;;16.38;4.53;;;;;;;15.57;82.33;102652.53;10154611;28;20480;-71
2021/09/22 10:28:42;;;;;;;15.98;4.30;;;;;;;15.66;81.99;102659.00;10146540;28;20097;-70
2021/09/22 10:33:43;;;;;;;19.35;4.82;;;;;;;15.59;80.44;102647.56;10147109;28;20046;-70
2021/09/22 10:38:43;;;;;;;9.02;3.20;;;;;;;15.74;80.02;102647.28;10152660;28;20042;-71
2021/09/22 10:43:43;;;;;;;13.00;4.50;;;;;;;15.90;79.17;102638.72;10152544;28;20046;-70
2021/09/22 10:48:51;;;;;;;11.73;3.78;;;;;;;15.82;78.52;102636.66;10154246;28;20141;-71
2021/09/22 10:53:47;;;;;;;15.93;4.22;;;;;;;15.72;78.81;102627.47;10146766;28;20246;-71
2021/09/22 10:58:51;;;;;;;16.88;3.38;;;;;;;15.66;78.50;102628.66;10154160;28;20080;-72
2021/09/22 11:03:47;;;;;;;18.08;3.17;;;;;;;15.62;78.61;102616.63;10149403;28;20116;-71
2021/09/22 11:09:03;;;;;;;10.00;3.42;;;;;;;15.90;78.00;102608.38;10152725;28;20065;-71
2021/09/22 11:13:59;;;;;;;14.40;3.30;;;;;;;16.13;76.06;102603.72;10151477;28;20042;-71
2021/09/22 11:18:58;;;;;;;13.77;2.90;;;;;;;16.16;72.98;102609.44;10148995;28;20053;-71
2021/09/22 11:23:55;;;;;;;13.30;3.00;;;;;;;16.44;70.42;102601.09;10152903;28;20684;-72
2021/09/22 11:28:53;;;;;;;8.27;2.58;;;;;;;16.59;70.06;102594.38;10145526;28;20086;-72
2021/09/22 11:33:56;;;;;;;6.53;2.10;;;;;;;16.54;68.41;102603.59;10135236;28;20042;-71
2021/09/22 11:38:53;;;;;;;;;;;;;;;16.37;69.11;102597.94;10150528;28;20077;-72
2021/09/22 11:43:50;;;;;;;8.07;2.63;;;;;;;16.78;69.47;102591.47;10154106;28;19938;-71
2021/09/22 11:48:46;;;;;;;9.05;2.83;;;;;;;17.27;67.20;102581.34;10149680;28;20046;-71
2021/09/22 11:53:44;;;;;;;7.30;2.33;;;;;;;17.67;65.33;102568.31;10142441;28;20057;-72
2021/09/22 11:58:43;;;;;;;8.88;2.80;;;;;;;17.86;62.90;102570.81;10152425;28;20476;-71
2021/09/22 12:03:39;;;;;;;6.90;2.30;;;;;;;18.31;61.55;102553.13;10145533;28;20078;-71
2021/09/22 12:08:39;;;;;;;10.75;2.53;;;;;;;18.34;61.97;102540.59;10152956;28;20073;-71
2021/09/22 12:13:44;;;;;;;9.98;2.42;;;;;;;18.01;62.53;102541.03;10145320;28;20065;-71
2021/09/22 12:18:49;;;;;;;7.90;2.03;;;;;;;18.43;63.09;102533.09;10152360;28;20270;-71
2021/09/22 12:23:46;;;;;;;9.27;2.45;;;;;;;18.61;61.82;102529.16;10160548;28;20100;-71
2021/09/22 12:29:06;;;;;;;7.10;1.83;;;;;;;18.58;60.03;102524.25;10158566;28;20042;-72
2021/09/22 12:34:14;;;;;;;7.47;1.80;;;;;;;18.87;59.37;102509.72;10145236;28;20081;-72
2021/09/22 12:39:16;;;;;;;9.38;1.92;;;;;;;19.21;58.10;102518.22;10155308;28;20057;-71
2021/09/22 12:44:13;;;;;;;6.30;1.70;;;;;;;19.48;57.75;102497.53;10152389;28;20050;-71
2021/09/22 12:49:23;;;;;;;8.10;2.30;;;;;;;19.90;55.71;102489.25;10157247;28;20110;-71
2021/09/22 12:54:20;;;;;;;7.13;1.55;;;;;;;20.45;53.56;102476.19;10156244;28;20038;-71
2021/09/22 12:59:29;;;;;;;8.57;1.83;;;;;;;21.73;51.44;102473.25;10152039;28;20057;-70
2021/09/22 13:04:31;;;;;;;8.40;1.80;;;;;;;22.37;48.68;102469.53;10157818;28;20186;-72
2021/09/22 13:09:30;;;;;;;8.32;2.05;;;;;;;22.89;47.57;102474.06;10152188;28;20089;-72
2021/09/22 13:14:37;;;;;;;6.93;1.75;;;;;;;22.23;45.70;102469.13;10151066;28;20174;-71
2021/09/22 13:19:34;;;;;;;6.35;1.70;;;;;;;22.77;45.52;102457.44;10151349;28;20424;-72
2021/09/22 13:24:36;;;;;;;7.13;1.70;;;;;;;22.36;47.20;102451.19;10155933;28;20065;-72
2021/09/22 13:29:33;;;;;;;8.55;1.35;;;;;;;22.39;48.44;102444.09;10155401;28;20054;-72
2021/09/22 13:34:31;;;;;;;6.72;1.73;;;;;;;22.74;45.69;102435.84;10156641;28;20424;-71
2021/09/22 13:39:32;;;;;;;6.10;1.40;;;;;;;22.64;47.02;102428.81;10143594;28;20047;-72
2021/09/22 13:44:29;;;;;;;7.82;1.67;;;;;;;22.38;46.54;102434.94;10151912;28;20625;-72
2021/09/22 13:49:27;;;;;;;6.38;1.42;;;;;;;21.67;46.86;102424.53;10153353;28;20120;-72
2021/09/22 13:54:24;;;;;;;6.28;1.58;;;;;;;22.01;48.63;102412.81;10149173;28;20548;-71
2021/09/22 13:59:20;;;;;;;5.53;1.52;;;;;;;21.84;49.85;102413.13;10152971;28;20129;-72
2021/09/22 14:04:18;;;;;;;7.00;1.60;;;;;;;21.36;50.51;102403.72;10152454;28;20526;-72
2021/09/22 14:09:17;;;;;;;7.55;1.50;;;;;;;21.04;50.25;102389.63;10151401;28;20452;-71
2021/09/22 14:14:13;;;;;;;5.43;1.13;;;;;;;21.04;50.68;102380.47;10152361;28;20050;-71
2021/09/22 14:19:10;;;;;;;6.03;1.50;;;;;;;21.12;50.11;102382.31;10147233;28;20047;-71
2021/09/22 14:24:07;;;;;;;8.82;1.60;;;;;;;21.00;50.41;102378.41;10153475;28;20054;-71
2021/09/22 14:29:04;;;;;;;5.97;1.77;;;;;;;20.93;50.22;102374.56;10152631;28;20042;-72
2021/09/22 14:34:00;;;;;;;6.82;1.67;;;;;;;20.46;51.19;102378.59;10146033;28;20393;-72
2021/09/22 14:39:01;;;;;;;4.78;1.40;;;;;;;20.47;52.34;102368.28;10153069;28;20070;-71
2021/09/22 14:43:58;;;;;;;7.13;1.77;;;;;;;20.44;53.29;102360.66;10143001;28;20054;-71
2021/09/22 14:48:55;;;;;;;8.02;2.10;;;;;;;20.38;52.97;102355.31;10148112;28;20073;-72
2021/09/22 14:53:52;;;;;;;7.47;2.00;;;;;;;20.31;52.48;102355.09;10151624;28;20042;-72
2021/09/22 14:58:49;;;;;;;8.30;2.30;;;;;;;20.46;52.69;102344.44;10153914;28;20511;-71
2021/09/22 15:03:46;;;;;;;10.18;2.30;;;;;;;20.30;51.70;102324.88;10152541;28;20640;-70
2021/09/22 15:08:43;;;;;;;9.23;2.10;;;;;;;20.10;53.40;102330.16;10152000;28;20066;-72
2021/09/22 15:13:40;;;;;;;11.48;2.25;;;;;;;19.73;54.38;102318.97;10149880;28;20146;-72
2021/09/22 15:18:36;;;;;;;8.50;2.00;;;;;;;19.79;54.74;102311.22;10150262;28;20085;-72
2021/09/22 15:23:33;;;;;;;10.95;2.60;;;;;;;19.79;55.42;102297.34;10152988;28;20354;-72
2021/09/22 15:28:30;;;;;;;9.05;2.20;;;;;;;19.80;55.16;102301.75;10138724;28;20046;-72
2021/09/22 15:33:29;;;;;;;8.38;2.30;;;;;;;19.77;54.80;102302.44;10144131;28;20060;-72
2021/09/22 15:38:26;;;;;;;8.55;2.80;;;;;;;19.49;54.41;102297.44;10147476;28;20054;-72
2021/09/22 15:43:22;;;;;;;8.63;2.53;;;;;;;19.41;55.17;102290.03;10149716;28;20053;-72
2021/09/22 15:48:19;;;;;;;6.00;2.50;;;;;;;19.27;54.58;102290.31;10150209;28;20074;-71
2021/09/22 15:53:49;;;;;;;10.35;2.75;;;;;;;19.22;55.55;102270.31;10158793;28;20408;-70
2021/09/22 15:58:48;;;;;;;9.57;3.10;;;;;;;19.21;54.95;102261.16;10159702;28;20073;-72
2021/09/22 16:03:44;;;;;;;11.77;2.90;;;;;;;19.24;55.30;102259.66;10158131;28;20113;-71
2021/09/22 16:08:41;;;;;;;8.77;2.70;;;;;;;19.09;55.39;102256.38;10157023;28;20043;-72
2021/09/22 16:13:38;;;;;;;9.48;2.80;;;;;;;18.98;56.69;102252.38;10160788;28;20522;-71
2021/09/22 16:18:35;;;;;;;8.77;2.75;;;;;;;18.97;57.65;102253.53;10155023;28;20053;-71
2021/09/22 16:23:32;;;;;;;7.28;2.67;;;;;;;18.78;58.70;102250.44;10160306;28;20579;-72
2021/09/22 16:28:29;;;;;;;13.82;4.78;;;;;;;18.58;59.35;102241.72;10137630;28;20562;-69
2021/09/22 16:33:30;;;;;;;12.85;4.22;;;;;;;18.35;60.09;102248.69;10154259;28;20129;-70
2021/09/22 16:38:27;;;;;;;12.13;3.33;;;;;;;18.39;60.53;102249.66;10158775;28;20043;-71
2021/09/22 16:43:24;;;;;;;12.88;4.13;;;;;;;18.21;60.23;102238.66;10153715;28;20102;-71
2021/09/22 16:48:21;;;;;;;9.30;3.38;;;;;;;18.09;60.33;102239.34;10157888;28;20125;-71
2021/09/22 16:53:18;;;;;;;13.05;4.28;;;;;;;17.96;60.91;102242.34;10155909;28;20074;-70
2021/09/22 16:58:14;;;;;;;15.77;3.80;;;;;;;17.96;61.18;102245.09;10157793;28;20468;-69
2021/09/22 17:03:11;;;;;;;13.05;4.00;;;;;;;17.81;61.77;102247.28;10156326;28;20049;-70
2021/09/22 17:08:08;;;;;;;12.80;3.55;;;;;;;17.79;61.92;102238.47;10157046;28;20145;-71
2021/09/22 17:13:06;;;;;;;11.75;3.85;;;;;;;17.70;62.42;102234.91;10151950;28;20054;-69
2021/09/22 17:18:03;;;;;;;13.38;3.90;;;;;;;17.58;63.29;102223.72;10156807;28;20053;-70
2021/09/22 17:23:00;;;;;;;12.90;4.93;;;;;;;17.45;64.09;102234.66;10156709;28;20472;-70
2021/09/22 17:27:58;;;;;;;16.08;4.85;;;;;;;17.40;64.52;102225.69;10143175;28;20129;-69
2021/09/22 17:32:55;;;;;;;9.63;3.70;;;;;;;17.34;65.36;102225.06;10156414;28;20432;-71
2021/09/22 17:37:51;;;;;;;11.20;4.43;;;;;;;17.31;65.94;102228.47;10152743;28;20061;-71
2021/09/22 17:42:48;;;;;;;11.75;5.20;;;;;;;17.21;66.43;102229.63;10152434;28;20054;-70
2021/09/22 17:47:45;;;;;;;11.73;5.30;;;;;;;17.14;66.95;102225.72;10152125;28;20132;-71
2021/09/22 17:52:42;;;;;;;12.20;5.45;;;;;;;17.13;67.29;102227.69;10147435;28;20401;-71
2021/09/22 17:57:39;;;;;;;13.57;5.65;;;;;;;17.08;67.76;102229.78;10153739;28;20129;-70
2021/09/22 18:02:39;;;;;;;15.15;5.35;;;;;;;17.08;67.83;102208.53;10153534;28;20532;-71
2021/09/22 18:07:37;;;;;;;11.15;5.20;;;;;;;17.04;68.25;102208.34;10153090;28;20101;-68
2021/09/22 18:12:35;;;;;;;12.43;5.93;;;;;;;16.94;68.82;102208.69;10153757;28;20058;-71
2021/09/22 18:17:31;;;;;;;9.65;5.63;;;;;;;16.86;69.24;102195.66;10154691;28;20416;-71
2021/09/22 18:22:28;;;;;;;13.40;6.32;;;;;;;16.80;69.67;102185.91;10146327;28;20073;-71
2021/09/22 18:27:25;;;;;;;13.82;6.72;;;;;;;16.73;69.95;102180.88;10151546;28;20042;-70
2021/09/22 18:32:21;;;;;;;12.38;5.95;;;;;;;16.73;70.31;102185.56;10152812;28;20427;-70
2021/09/22 18:37:19;;;;;;;14.63;7.00;;;;;;;16.67;70.58;102186.88;10150118;28;20042;-70
2021/09/22 18:42:17;;;;;;;13.77;7.30;;;;;;;16.66;70.76;102191.56;10154131;28;20046;-70
2021/09/22 18:47:15;;;;;;;16.60;7.97;;;;;;;16.65;70.89;102192.72;10148750;28;20046;-70
2021/09/22 18:52:12;;;;;;;11.27;6.10;;;;;;;16.61;70.92;102175.97;10153702;28;20121;-69
2021/09/22 18:57:08;;;;;;;13.15;6.25;;;;;;;16.55;71.15;102180.03;10151622;28;20050;-70
2021/09/22 19:02:06;;;;;;;16.65;7.43;;;;;;;16.48;71.07;102168.66;10149965;28;20488;-70
2021/09/22 19:07:03;;;;;;;15.52;6.72;;;;;;;16.42;71.28;102165.22;10153384;28;20069;-70
2021/09/22 19:12:00;;;;;;;14.80;6.60;;;;;;;16.40;70.78;102167.47;10151908;28;20412;-68
2021/09/22 19:16:57;;;;;;;16.95;7.43;;;;;;;16.37;71.16;102164.56;10151550;28;20050;-70
2021/09/22 19:21:55;;;;;;;16.70;7.38;;;;;;;16.36;70.84;102157.41;10150980;28;20389;-70
2021/09/22 19:26:52;;;;;;;17.27;7.82;;;;;;;16.29;71.19;102154.31;10148874;28;20629;-71
2021/09/22 19:31:49;;;;;;;13.93;7.43;;;;;;;16.28;70.92;102152.72;10152516;28;20050;-69
2021/09/22 19:36:45;;;;;;;17.60;7.68;;;;;;;16.23;71.06;102139.06;10146769;28;20038;-70
2021/09/22 19:41:42;;;;;;;15.27;7.93;;;;;;;16.18;71.08;102124.28;10151428;28;20416;-70
2021/09/22 19:46:38;;;;;;;14.05;7.10;;;;;;;16.13;71.28;102113.41;10148131;28;20046;-70
2021/09/22 19:51:35;;;;;;;15.85;8.13;;;;;;;16.14;70.63;102111.44;10151666;28;20050;-70
2021/09/22 19:56:35;;;;;;;17.27;7.93;;;;;;;16.10;70.69;102107.69;10147066;28;20041;-70
2021/09/22 20:01:32;;;;;;;15.70;8.70;;;;;;;16.10;70.67;102111.25;10153018;28;20046;-70
2021/09/22 20:06:30;;;;;;;19.42;8.23;;;;;;;16.10;70.75;102108.50;10138019;28;20530;-71
2021/09/22 20:11:28;;;;;;;14.02;7.53;;;;;;;16.13;71.00;102113.41;10152145;28;20060;-69
2021/09/22 20:16:25;;;;;;;16.33;7.97;;;;;;;16.13;70.74;102096.00;10145030;28;20044;-71
2021/09/22 20:21:21;;;;;;;21.08;9.30;;;;;;;16.08;71.36;102093.41;10148290;28;20659;-71
2021/09/22 20:26:20;;;;;;;17.17;8.63;;;;;;;16.05;71.58;102100.38;10151660;28;20034;-69
2021/09/22 20:31:17;;;;;;;18.50;10.00;;;;;;;15.99;71.77;102090.66;10151013;28;20046;-69
2021/09/22 20:36:14;;;;;;;15.60;9.30;;;;;;;15.95;72.44;102096.00;10148176;28;20034;-71
2021/09/22 20:41:10;;;;;;;18.20;10.02;;;;;;;15.88;72.92;102089.31;10152206;28;20131;-70
2021/09/22 20:46:07;;;;;;;16.27;9.82;;;;;;;15.83;73.77;102081.19;10154569;28;20515;-69
2021/09/22 20:51:03;;;;;;;16.77;9.90;;;;;;;15.76;73.58;102076.97;10157640;28;20048;-71
2021/09/22 20:56:00;;;;;;;18.75;11.73;;;;;;;15.67;74.03;102073.34;10155987;28;20447;-69
2021/09/22 21:00:56;;;;;;;16.85;10.27;;;;;;;15.66;74.09;102066.19;10154557;28;20046;-70
2021/09/22 21:05:53;;;;;;;17.92;11.40;;;;;;;15.54;74.93;102046.69;10153131;28;20049;-71
2021/09/22 21:10:50;;;;;;;21.75;12.18;;;;;;;15.50;75.13;102041.03;10157991;28;20487;-70
2021/09/22 21:15:46;;;;;;;16.85;11.15;;;;;;;15.48;75.49;102031.41;10156659;28;20531;-70
2021/09/22 21:20:43;;;;;;;19.85;12.77;;;;;;;15.43;75.70;102028.81;10157339;28;20077;-70
2021/09/22 21:25:45;;;;;;;21.05;12.35;;;;;;;15.23;76.86;102047.53;10151788;28;20046;-69
2021/09/22 21:30:42;;;;;;;19.50;13.65;;;;;;;15.19;77.10;102074.09;10156404;28;20052;-70
2021/09/22 21:35:41;;;;;;;19.80;12.55;;;;;;;15.20;77.18;102080.41;10153590;28;20105;-70
2021/09/22 21:40:38;;;;;;;23.80;13.32;;;;;;;15.13;77.67;102056.91;10156714;28;20054;-70
2021/09/22 21:45:36;;;;;;;23.67;13.57;;;;;;;15.08;77.79;102040.50;10146018;28;20556;-70
2021/09/22 21:50:33;;;;;;;21.75;14.35;;;;;;;14.98;78.30;102045.47;10151637;28;20042;-70
2021/09/22 21:55:30;;;;;;;23.00;14.25;;;;;;;15.01;78.02;102056.66;10157257;28;20050;-70
2021/09/22 22:00:30;;;;;;;24.10;14.85;;;;;;;14.92;78.58;102070.41;10153575;28;20049;-70
2021/09/22 22:05:27;;;;;;;28.27;15.85;;;;;;;14.94;78.92;102062.63;10148060;28;20042;-70
2021/09/22 22:10:24;;;;;;;24.60;14.77;;;;;;;14.86;79.05;102049.63;10152098;28;20046;-71
2021/09/22 22:15:20;;;;;;;26.00;15.00;;;;;;;14.69;80.20;102055.81;10155706;28;20443;-70
2021/09/22 22:20:17;;;;;;;23.30;15.15;;;;;;;14.78;79.55;102031.09;10153097;28;20046;-69
2021/09/22 22:25:17;;;;;;;21.20;14.48;;;;;;;14.76;79.96;102005.84;10152221;28;20046;-70
2021/09/22 22:30:15;;;;;;;25.00;16.63;;;;;;;14.76;79.64;102016.84;10151439;28;20394;-70
2021/09/22 22:35:12;;;;;;;26.15;16.88;;;;;;;14.62;80.38;102021.59;10149985;28;20054;-70